PPIZ METAR and TAF weather

Enter ICAO airport designator
Station Type Date Time Source
PPIZ METAR 2018/12/15 03:56 UTC NOAA

PPIZ 150356Z AUTO 11006KT 7SM -SN FEW035 BKN070 OVC100 M24/M26 A2958 RMK AO2 SLP020 P0000 T12391261 FZRANO


Station Type Date Time Source
PPIZ Decoded METAR 2018/12/15 03:56 UTC NOAA

Point Lay, Point Lay LRRS Airport, AK, United States (PPIZ) 69-43N 163-00W
Dec 14, 2018 - 10:56 PM EST / 2018.12.15 0356 UTC
Wind: from the ESE (110 degrees) at 7 MPH (6 KT):0
Visibility: 7 mile(s):0
Sky conditions: overcast
Weather: light snow
Precipitation last hour: A trace
Temperature: -11.0 F (-23.9 C)
Windchill: -25 F (-32 C):2
Dew Point: -15.0 F (-26.1 C)
Relative Humidity: 82%
Pressure (altimeter): 29.58 in. Hg (1001 hPa)
ob: PPIZ 150356Z AUTO 11006KT 7SM -SN FEW035 BKN070 OVC100 M24/M26 A2958 RMK AO2 SLP020 P0000 T12391261 FZRANO
cycle: 4

Station Type Date Time Source
PPIZ TAF UTC NOAA

Error!


Example: see airport list